DAL3043 KMLB-KATL
Flight info
| Callsign | DAL3043 |
|---|---|
| Flight time | N/A |
| Altitude | 35000 |
| Route | WORMS JEEMY ACCHE PAINN/N0462F360 SHRKS LAIRI LARZZ JJEDI4 |
| Aircraft | A319/M-SDE3FGHIRWY/LB1 |
Departure
| Time | 2026-05-06 01:59 |
|---|---|
| Airport | Melbourne Orlando International Airport (KMLB) |
Arrival
| Time | N/A |
|---|---|
| Airport | Hartsfield Jackson Atlanta International Airport (KATL) |
| Time | Latitude | Longitude | Altitude | Speed | Heading |
|---|---|---|---|---|---|
| 2026-05-06 01:41 | 28.09886 | -80.62990 | 35 ft | 0 kts | 315° |
| 2026-05-06 01:52 | 28.09899 | -80.62997 | 36 ft | 5 kts | 340° |
| 2026-05-06 01:52 | 28.09955 | -80.63018 | 36 ft | 12 kts | 328° |
| 2026-05-06 01:52 | 28.09986 | -80.63126 | 34 ft | 17 kts | 229° |
| 2026-05-06 01:52 | 28.09898 | -80.63201 | 33 ft | 11 kts | 270° |
| 2026-05-06 01:53 | 28.09931 | -80.63282 | 33 ft | 11 kts | 314° |
| 2026-05-06 01:53 | 28.09989 | -80.63353 | 34 ft | 14 kts | 312° |
| 2026-05-06 01:53 | 28.10061 | -80.63442 | 35 ft | 16 kts | 312° |
| 2026-05-06 01:53 | 28.10105 | -80.63551 | 36 ft | 16 kts | 274° |
| 2026-05-06 01:54 | 28.10104 | -80.63669 | 38 ft | 14 kts | 264° |
| 2026-05-06 01:54 | 28.10099 | -80.63780 | 38 ft | 14 kts | 267° |
| 2026-05-06 01:54 | 28.10098 | -80.63897 | 37 ft | 16 kts | 269° |
| 2026-05-06 01:54 | 28.10090 | -80.64026 | 38 ft | 17 kts | 265° |
| 2026-05-06 01:55 | 28.10085 | -80.64155 | 40 ft | 16 kts | 266° |
| 2026-05-06 01:55 | 28.10074 | -80.64282 | 40 ft | 16 kts | 268° |
| 2026-05-06 01:55 | 28.10071 | -80.64418 | 38 ft | 18 kts | 268° |
| 2026-05-06 01:55 | 28.10064 | -80.64559 | 39 ft | 18 kts | 266° |
| 2026-05-06 01:56 | 28.10057 | -80.64697 | 39 ft | 18 kts | 266° |
| 2026-05-06 01:56 | 28.10050 | -80.64840 | 37 ft | 19 kts | 268° |
| 2026-05-06 01:56 | 28.10047 | -80.64993 | 37 ft | 19 kts | 268° |
| 2026-05-06 01:56 | 28.10040 | -80.65150 | 38 ft | 21 kts | 266° |
| 2026-05-06 01:57 | 28.10031 | -80.65315 | 38 ft | 21 kts | 267° |
| 2026-05-06 01:57 | 28.10026 | -80.65480 | 39 ft | 21 kts | 268° |
| 2026-05-06 01:57 | 28.10017 | -80.65643 | 41 ft | 20 kts | 266° |
| 2026-05-06 01:57 | 28.10008 | -80.65797 | 42 ft | 19 kts | 266° |
| 2026-05-06 01:58 | 28.09999 | -80.65945 | 43 ft | 19 kts | 265° |
| 2026-05-06 01:58 | 28.10015 | -80.66082 | 42 ft | 17 kts | 319° |
| 2026-05-06 01:58 | 28.10123 | -80.66080 | 41 ft | 17 kts | 47° |
| 2026-05-06 01:58 | 28.10136 | -80.65943 | 39 ft | 23 kts | 86° |
| 2026-05-06 01:59 | 28.10158 | -80.65490 | 39 ft | 93 kts | 86° |
| 2026-05-06 01:59 | 28.10205 | -80.64528 | 38 ft | 150 kts | 87° |
| 2026-05-06 01:59 | 28.10262 | -80.63271 | 450 ft | 162 kts | 87° |
| 2026-05-06 01:59 | 28.10322 | -80.61981 | 1021 ft | 166 kts | 86° |
| 2026-05-06 02:00 | 28.10395 | -80.60655 | 1650 ft | 170 kts | 88° |
| 2026-05-06 02:00 | 28.10782 | -80.59335 | 2014 ft | 196 kts | 52° |
| 2026-05-06 02:00 | 28.12084 | -80.58529 | 2161 ft | 239 kts | 11° |
| 2026-05-06 02:00 | 28.13827 | -80.58872 | 2449 ft | 275 kts | 334° |
| 2026-05-06 02:01 | 28.15388 | -80.60109 | 3525 ft | 272 kts | 319° |
| 2026-05-06 02:01 | 28.16749 | -80.61562 | 4688 ft | 266 kts | 314° |
| 2026-05-06 02:01 | 28.18069 | -80.63075 | 5609 ft | 272 kts | 314° |